sensor_id;sensor_type;location;lat;lon;timestamp;pressure;altitude;pressure_sealevel;temperature;humidity
24788;BME280;12883;52.662;5.196;2022-11-20T00:02:09;101458.59;;;1.07;100.00
24788;BME280;12883;52.662;5.196;2022-11-20T00:04:34;101456.69;;;1.09;100.00
24788;BME280;12883;52.662;5.196;2022-11-20T00:06:59;101455.25;;;1.05;100.00
24788;BME280;12883;52.662;5.196;2022-11-20T00:09:25;101461.81;;;1.00;100.00
24788;BME280;12883;52.662;5.196;2022-11-20T00:11:50;101471.41;;;0.99;100.00
24788;BME280;12883;52.662;5.196;2022-11-20T00:14:16;101474.41;;;0.95;100.00
24788;BME280;12883;52.662;5.196;2022-11-20T00:16:41;101470.03;;;0.95;100.00
24788;BME280;12883;52.662;5.196;2022-11-20T00:19:07;101475.38;;;0.94;100.00
24788;BME280;12883;52.662;5.196;2022-11-20T00:21:32;101474.66;;;0.92;100.00
24788;BME280;12883;52.662;5.196;2022-11-20T00:23:58;101475.84;;;0.88;100.00
24788;BME280;12883;52.662;5.196;2022-11-20T00:26:25;101458.03;;;0.93;100.00
24788;BME280;12883;52.662;5.196;2022-11-20T00:28:53;101464.22;;;0.92;100.00
24788;BME280;12883;52.662;5.196;2022-11-20T00:31:19;101457.06;;;0.94;100.00
24788;BME280;12883;52.662;5.196;2022-11-20T00:33:45;101451.38;;;1.00;100.00
24788;BME280;12883;52.662;5.196;2022-11-20T00:36:14;101458.25;;;1.01;100.00
24788;BME280;12883;52.662;5.196;2022-11-20T00:38:40;101459.19;;;1.00;100.00
24788;BME280;12883;52.662;5.196;2022-11-20T00:41:10;101459.31;;;0.98;100.00
24788;BME280;12883;52.662;5.196;2022-11-20T00:43:36;101397.22;;;0.59;100.00
24788;BME280;12883;52.662;5.196;2022-11-20T00:46:10;101461.50;;;0.93;100.00
24788;BME280;12883;52.662;5.196;2022-11-20T00:48:37;101462.31;;;0.94;100.00
24788;BME280;12883;52.662;5.196;2022-11-20T00:51:02;101465.28;;;1.00;100.00
24788;BME280;12883;52.662;5.196;2022-11-20T00:53:28;101461.00;;;0.88;100.00
24788;BME280;12883;52.662;5.196;2022-11-20T00:55:55;101459.22;;;0.89;100.00
24788;BME280;12883;52.662;5.196;2022-11-20T00:58:23;101401.97;;;0.54;100.00
24788;BME280;12883;52.662;5.196;2022-11-20T01:00:48;101464.44;;;0.89;100.00
24788;BME280;12883;52.662;5.196;2022-11-20T01:03:15;101453.06;;;0.90;100.00
24788;BME280;12883;52.662;5.196;2022-11-20T01:05:41;101453.66;;;0.82;100.00
24788;BME280;12883;52.662;5.196;2022-11-20T01:08:06;101455.91;;;0.76;100.00
24788;BME280;12883;52.662;5.196;2022-11-20T01:10:32;101444.53;;;0.77;100.00
24788;BME280;12883;52.662;5.196;2022-11-20T01:12:57;101443.09;;;0.73;100.00
24788;BME280;12883;52.662;5.196;2022-11-20T01:15:41;101445.13;;;0.69;100.00
24788;BME280;12883;52.662;5.196;2022-11-20T01:18:06;101442.25;;;0.72;100.00
24788;BME280;12883;52.662;5.196;2022-11-20T01:20:35;101442.16;;;0.74;100.00
24788;BME280;12883;52.662;5.196;2022-11-20T01:23:01;101447.38;;;0.74;100.00
24788;BME280;12883;52.662;5.196;2022-11-20T01:25:27;101436.22;;;0.72;100.00
24788;BME280;12883;52.662;5.196;2022-11-20T01:27:52;101438.63;;;0.64;100.00
24788;BME280;12883;52.662;5.196;2022-11-20T01:30:18;101430.41;;;0.57;100.00
24788;BME280;12883;52.662;5.196;2022-11-20T01:32:43;101433.06;;;0.46;100.00
24788;BME280;12883;52.662;5.196;2022-11-20T01:35:09;101423.44;;;0.58;100.00
24788;BME280;12883;52.662;5.196;2022-11-20T01:37:35;101414.66;;;0.48;100.00
24788;BME280;12883;52.662;5.196;2022-11-20T01:40:00;101425.69;;;0.40;100.00
24788;BME280;12883;52.662;5.196;2022-11-20T01:42:25;101415.25;;;0.40;100.00
24788;BME280;12883;52.662;5.196;2022-11-20T01:45:42;101423.22;;;0.50;100.00
24788;BME280;12883;52.662;5.196;2022-11-20T01:48:18;101423.91;;;0.41;100.00
24788;BME280;12883;52.662;5.196;2022-11-20T01:50:45;101426.41;;;0.42;100.00
24788;BME280;12883;52.662;5.196;2022-11-20T01:53:15;101421.56;;;0.38;100.00
24788;BME280;12883;52.662;5.196;2022-11-20T01:55:49;101396.66;;;0.23;100.00
24788;BME280;12883;52.662;5.196;2022-11-20T01:58:16;101415.50;;;0.26;100.00
24788;BME280;12883;52.662;5.196;2022-11-20T02:00:43;101411.59;;;0.32;100.00
24788;BME280;12883;52.662;5.196;2022-11-20T02:03:12;101401.50;;;0.38;100.00
24788;BME280;12883;52.662;5.196;2022-11-20T02:05:45;101434.13;;;0.33;100.00
24788;BME280;12883;52.662;5.196;2022-11-20T02:08:12;101405.53;;;0.09;100.00
24788;BME280;12883;52.662;5.196;2022-11-20T02:10:39;101396.41;;;0.04;100.00
24788;BME280;12883;52.662;5.196;2022-11-20T02:13:04;101393.78;;;0.04;100.00
24788;BME280;12883;52.662;5.196;2022-11-20T02:15:49;101393.78;;;-0.07;100.00
24788;BME280;12883;52.662;5.196;2022-11-20T02:18:16;101381.81;;;0.01;100.00
24788;BME280;12883;52.662;5.196;2022-11-20T02:20:44;101359.41;;;-0.01;100.00
24788;BME280;12883;52.662;5.196;2022-11-20T02:23:39;101379.56;;;0.30;100.00
24788;BME280;12883;52.662;5.196;2022-11-20T02:26:08;101333.81;;;-0.07;100.00
24788;BME280;12883;52.662;5.196;2022-11-20T02:28:35;101383.13;;;0.18;100.00
24788;BME280;12883;52.662;5.196;2022-11-20T02:31:01;101381.47;;;-0.05;100.00
24788;BME280;12883;52.662;5.196;2022-11-20T02:33:26;101382.28;;;-0.05;100.00
24788;BME280;12883;52.662;5.196;2022-11-20T02:35:51;101373.19;;;0.01;100.00
24788;BME280;12883;52.662;5.196;2022-11-20T02:38:17;101379.81;;;0.05;100.00
24788;BME280;12883;52.662;5.196;2022-11-20T02:40:43;101396.50;;;0.02;100.00
24788;BME280;12883;52.662;5.196;2022-11-20T02:43:08;101352.28;;;-0.32;100.00
24788;BME280;12883;52.662;5.196;2022-11-20T02:45:34;101376.00;;;-0.02;100.00
24788;BME280;12883;52.662;5.196;2022-11-20T02:48:00;101376.50;;;0.03;100.00
24788;BME280;12883;52.662;5.196;2022-11-20T02:50:25;101362.25;;;-0.04;100.00
24788;BME280;12883;52.662;5.196;2022-11-20T02:52:50;101361.88;;;-0.11;100.00
24788;BME280;12883;52.662;5.196;2022-11-20T02:55:16;101361.56;;;-0.06;100.00
24788;BME280;12883;52.662;5.196;2022-11-20T02:57:41;101354.22;;;-0.12;100.00
24788;BME280;12883;52.662;5.196;2022-11-20T03:00:07;101355.47;;;-0.17;100.00
24788;BME280;12883;52.662;5.196;2022-11-20T03:02:33;101358.97;;;-0.06;100.00
24788;BME280;12883;52.662;5.196;2022-11-20T03:04:58;101349.31;;;-0.27;100.00
24788;BME280;12883;52.662;5.196;2022-11-20T03:07:24;101340.66;;;-0.39;100.00
24788;BME280;12883;52.662;5.196;2022-11-20T03:09:49;101339.25;;;-0.21;100.00
24788;BME280;12883;52.662;5.196;2022-11-20T03:12:14;101351.72;;;-0.13;100.00
24788;BME280;12883;52.662;5.196;2022-11-20T03:14:40;101320.28;;;-0.45;100.00
24788;BME280;12883;52.662;5.196;2022-11-20T03:17:05;101347.34;;;-0.13;100.00
24788;BME280;12883;52.662;5.196;2022-11-20T03:19:30;101347.09;;;-0.10;100.00
24788;BME280;12883;52.662;5.196;2022-11-20T03:21:56;101347.09;;;-0.10;100.00
24788;BME280;12883;52.662;5.196;2022-11-20T03:24:21;101350.16;;;-0.16;100.00
24788;BME280;12883;52.662;5.196;2022-11-20T03:26:46;101308.81;;;-0.42;100.00
24788;BME280;12883;52.662;5.196;2022-11-20T03:29:12;101341.03;;;-0.21;100.00
24788;BME280;12883;52.662;5.196;2022-11-20T03:31:39;101339.03;;;-0.18;100.00
24788;BME280;12883;52.662;5.196;2022-11-20T03:34:06;101329.91;;;-0.23;100.00
24788;BME280;12883;52.662;5.196;2022-11-20T03:36:31;101333.13;;;-0.20;100.00
24788;BME280;12883;52.662;5.196;2022-11-20T03:38:57;101335.13;;;-0.23;100.00
24788;BME280;12883;52.662;5.196;2022-11-20T03:41:25;101334.63;;;-0.28;100.00
24788;BME280;12883;52.662;5.196;2022-11-20T03:44:02;101318.25;;;-0.52;100.00
24788;BME280;12883;52.662;5.196;2022-11-20T03:46:28;101322.31;;;-0.37;100.00
24788;BME280;12883;52.662;5.196;2022-11-20T03:48:54;101319.56;;;-0.58;100.00
24788;BME280;12883;52.662;5.196;2022-11-20T03:53:47;101313.16;;;-0.43;100.00
24788;BME280;12883;52.662;5.196;2022-11-20T03:56:15;101311.31;;;-0.41;100.00
24788;BME280;12883;52.662;5.196;2022-11-20T03:58:41;101337.22;;;-0.50;100.00
24788;BME280;12883;52.662;5.196;2022-11-20T04:01:08;101330.31;;;-0.62;100.00
24788;BME280;12883;52.662;5.196;2022-11-20T04:03:35;101299.75;;;-0.71;100.00
24788;BME280;12883;52.662;5.196;2022-11-20T04:06:06;101306.75;;;-0.72;100.00
24788;BME280;12883;52.662;5.196;2022-11-20T04:08:32;101238.16;;;-0.94;100.00
24788;BME280;12883;52.662;5.196;2022-11-20T04:11:16;101285.91;;;-0.72;100.00
24788;BME280;12883;52.662;5.196;2022-11-20T04:13:46;101298.97;;;-0.61;100.00
24788;BME280;12883;52.662;5.196;2022-11-20T04:16:12;101298.91;;;-0.83;100.00
24788;BME280;12883;52.662;5.196;2022-11-20T04:18:38;101286.81;;;-0.84;100.00
24788;BME280;12883;52.662;5.196;2022-11-20T04:21:04;101296.72;;;-0.65;100.00
24788;BME280;12883;52.662;5.196;2022-11-20T04:23:30;101302.94;;;-0.79;100.00
24788;BME280;12883;52.662;5.196;2022-11-20T04:28:29;101298.97;;;-0.61;100.00
24788;BME280;12883;52.662;5.196;2022-11-20T04:30:54;101296.19;;;-0.81;100.00
24788;BME280;12883;52.662;5.196;2022-11-20T04:33:19;101294.78;;;-0.74;100.00
24788;BME280;12883;52.662;5.196;2022-11-20T04:35:46;101293.22;;;-0.88;100.00
24788;BME280;12883;52.662;5.196;2022-11-20T04:38:12;101284.91;;;-0.93;100.00
24788;BME280;12883;52.662;5.196;2022-11-20T04:40:38;101283.03;;;-0.80;100.00
24788;BME280;12883;52.662;5.196;2022-11-20T04:43:03;101286.16;;;-0.75;100.00
24788;BME280;12883;52.662;5.196;2022-11-20T04:45:28;101290.16;;;-0.82;100.00
24788;BME280;12883;52.662;5.196;2022-11-20T04:47:54;101286.84;;;-0.73;100.00
24788;BME280;12883;52.662;5.196;2022-11-20T04:50:19;101283.41;;;-0.73;100.00
24788;BME280;12883;52.662;5.196;2022-11-20T04:52:44;101284.94;;;-0.82;100.00
24788;BME280;12883;52.662;5.196;2022-11-20T04:55:10;101273.53;;;-0.92;100.00
24788;BME280;12883;52.662;5.196;2022-11-20T04:57:35;101271.84;;;-1.04;100.00
24788;BME280;12883;52.662;5.196;2022-11-20T05:00:00;101266.63;;;-1.04;100.00
24788;BME280;12883;52.662;5.196;2022-11-20T05:02:26;101267.59;;;-1.05;100.00
24788;BME280;12883;52.662;5.196;2022-11-20T05:04:51;101277.34;;;-0.96;100.00
24788;BME280;12883;52.662;5.196;2022-11-20T05:07:16;101285.84;;;-0.94;100.00
24788;BME280;12883;52.662;5.196;2022-11-20T05:09:42;101283.47;;;-0.97;100.00
24788;BME280;12883;52.662;5.196;2022-11-20T05:12:08;101285.50;;;-0.89;100.00
24788;BME280;12883;52.662;5.196;2022-11-20T05:14:34;101272.03;;;-0.83;100.00
24788;BME280;12883;52.662;5.196;2022-11-20T05:16:59;101263.84;;;-0.90;100.00
24788;BME280;12883;52.662;5.196;2022-11-20T05:19:24;101260.53;;;-0.92;100.00
24788;BME280;12883;52.662;5.196;2022-11-20T05:21:50;101264.53;;;-0.99;100.00
24788;BME280;12883;52.662;5.196;2022-11-20T05:24:15;101210.28;;;-1.27;100.00
24788;BME280;12883;52.662;5.196;2022-11-20T05:26:41;101251.06;;;-0.93;100.00
24788;BME280;12883;52.662;5.196;2022-11-20T05:29:06;101248.50;;;-0.82;100.00
24788;BME280;12883;52.662;5.196;2022-11-20T05:31:31;101246.09;;;-0.96;100.00
24788;BME280;12883;52.662;5.196;2022-11-20T05:33:57;101232.78;;;-1.04;100.00
24788;BME280;12883;52.662;5.196;2022-11-20T05:36:23;101231.19;;;-0.94;100.00
24788;BME280;12883;52.662;5.196;2022-11-20T05:38:48;101234.97;;;-0.87;100.00
24788;BME280;12883;52.662;5.196;2022-11-20T05:41:19;101200.34;;;-1.11;100.00
24788;BME280;12883;52.662;5.196;2022-11-20T05:43:46;101232.72;;;-0.91;100.00
24788;BME280;12883;52.662;5.196;2022-11-20T05:46:14;101233.53;;;-1.02;100.00
24788;BME280;12883;52.662;5.196;2022-11-20T05:48:41;101232.34;;;-0.98;100.00
24788;BME280;12883;52.662;5.196;2022-11-20T05:51:11;101238.59;;;-1.00;100.00
24788;BME280;12883;52.662;5.196;2022-11-20T05:53:37;101243.69;;;-0.99;100.00
24788;BME280;12883;52.662;5.196;2022-11-20T05:56:21;101244.94;;;-0.81;100.00
24788;BME280;12883;52.662;5.196;2022-11-20T05:58:47;101248.09;;;-0.88;100.00
24788;BME280;12883;52.662;5.196;2022-11-20T06:01:19;101156.28;;;-1.47;100.00
24788;BME280;12883;52.662;5.196;2022-11-20T06:03:45;101256.03;;;-0.90;100.00
24788;BME280;12883;52.662;5.196;2022-11-20T06:06:13;101243.50;;;-0.85;100.00
24788;BME280;12883;52.662;5.196;2022-11-20T06:08:39;101221.94;;;-0.98;100.00
24788;BME280;12883;52.662;5.196;2022-11-20T06:11:09;101246.34;;;-0.77;100.00
24788;BME280;12883;52.662;5.196;2022-11-20T06:13:35;101231.59;;;-1.11;100.00
24788;BME280;12883;52.662;5.196;2022-11-20T06:16:01;101244.91;;;-0.92;100.00
24788;BME280;12883;52.662;5.196;2022-11-20T06:18:27;101251.53;;;-0.77;100.00
24788;BME280;12883;52.662;5.196;2022-11-20T06:21:09;101184.03;;;-1.13;100.00
24788;BME280;12883;52.662;5.196;2022-11-20T06:23:35;101248.72;;;-0.63;100.00
24788;BME280;12883;52.662;5.196;2022-11-20T06:26:06;101249.22;;;-0.69;100.00
24788;BME280;12883;52.662;5.196;2022-11-20T06:28:31;101233.09;;;-0.63;100.00
24788;BME280;12883;52.662;5.196;2022-11-20T06:30:57;101244.59;;;-0.65;100.00
24788;BME280;12883;52.662;5.196;2022-11-20T06:33:23;101251.81;;;-0.58;100.00
24788;BME280;12883;52.662;5.196;2022-11-20T06:35:48;101237.38;;;-0.51;100.00
24788;BME280;12883;52.662;5.196;2022-11-20T06:38:14;101234.88;;;-0.41;100.00
24788;BME280;12883;52.662;5.196;2022-11-20T06:40:40;101232.88;;;-0.38;100.00
24788;BME280;12883;52.662;5.196;2022-11-20T06:43:05;101232.75;;;-0.36;100.00
24788;BME280;12883;52.662;5.196;2022-11-20T06:45:31;101233.56;;;-0.25;100.00
24788;BME280;12883;52.662;5.196;2022-11-20T06:47:57;101243.53;;;-0.19;100.00
24788;BME280;12883;52.662;5.196;2022-11-20T06:50:23;101226.44;;;-0.12;100.00
24788;BME280;12883;52.662;5.196;2022-11-20T06:52:48;101227.84;;;-0.08;100.00
24788;BME280;12883;52.662;5.196;2022-11-20T06:55:13;101227.25;;;-0.01;100.00
24788;BME280;12883;52.662;5.196;2022-11-20T06:57:39;101222.63;;;0.03;100.00
24788;BME280;12883;52.662;5.196;2022-11-20T07:00:05;101218.47;;;0.11;100.00
24788;BME280;12883;52.662;5.196;2022-11-20T07:02:30;101221.88;;;0.12;100.00
24788;BME280;12883;52.662;5.196;2022-11-20T07:04:55;101213.72;;;0.05;100.00
24788;BME280;12883;52.662;5.196;2022-11-20T07:07:21;101214.91;;;0.01;100.00
24788;BME280;12883;52.662;5.196;2022-11-20T07:09:46;101215.00;;;0.11;100.00
24788;BME280;12883;52.662;5.196;2022-11-20T07:12:11;101211.66;;;0.20;100.00
24788;BME280;12883;52.662;5.196;2022-11-20T07:14:37;101218.75;;;0.29;100.00
24788;BME280;12883;52.662;5.196;2022-11-20T07:17:02;101217.13;;;0.17;100.00
24788;BME280;12883;52.662;5.196;2022-11-20T07:19:27;101223.72;;;0.32;100.00
24788;BME280;12883;52.662;5.196;2022-11-20T07:21:53;101215.66;;;0.35;100.00
24788;BME280;12883;52.662;5.196;2022-11-20T07:24:18;101216.19;;;0.49;100.00
24788;BME280;12883;52.662;5.196;2022-11-20T07:26:46;101208.91;;;0.53;100.00
24788;BME280;12883;52.662;5.196;2022-11-20T07:29:11;101203.19;;;0.59;100.00
24788;BME280;12883;52.662;5.196;2022-11-20T07:31:37;101200.84;;;0.56;100.00
24788;BME280;12883;52.662;5.196;2022-11-20T07:34:02;101189.66;;;0.65;100.00
24788;BME280;12883;52.662;5.196;2022-11-20T07:36:27;101189.38;;;0.68;100.00
24788;BME280;12883;52.662;5.196;2022-11-20T07:38:53;101195.00;;;0.63;100.00
24788;BME280;12883;52.662;5.196;2022-11-20T07:41:19;101198.88;;;0.69;100.00
24788;BME280;12883;52.662;5.196;2022-11-20T07:43:44;101185.31;;;0.75;100.00
24788;BME280;12883;52.662;5.196;2022-11-20T07:46:10;101190.94;;;0.91;100.00
24788;BME280;12883;52.662;5.196;2022-11-20T07:48:35;101184.75;;;0.92;100.00
24788;BME280;12883;52.662;5.196;2022-11-20T07:51:00;101198.16;;;1.08;100.00
24788;BME280;12883;52.662;5.196;2022-11-20T07:53:26;101196.25;;;1.10;100.00
24788;BME280;12883;52.662;5.196;2022-11-20T07:55:51;101186.13;;;1.16;100.00
24788;BME280;12883;52.662;5.196;2022-11-20T07:58:20;101184.13;;;1.29;100.00
24788;BME280;12883;52.662;5.196;2022-11-20T08:00:45;101185.66;;;1.41;100.00
24788;BME280;12883;52.662;5.196;2022-11-20T08:03:11;101190.53;;;1.46;100.00
24788;BME280;12883;52.662;5.196;2022-11-20T08:05:36;101131.38;;;1.15;100.00
24788;BME280;12883;52.662;5.196;2022-11-20T08:08:02;101204.72;;;1.53;100.00
24788;BME280;12883;52.662;5.196;2022-11-20T08:10:28;101175.19;;;1.71;100.00
24788;BME280;12883;52.662;5.196;2022-11-20T08:12:53;101183.06;;;1.81;100.00
24788;BME280;12883;52.662;5.196;2022-11-20T08:15:39;101180.69;;;1.78;100.00
24788;BME280;12883;52.662;5.196;2022-11-20T08:18:10;101155.25;;;1.80;100.00
24788;BME280;12883;52.662;5.196;2022-11-20T08:20:37;101184.19;;;2.07;100.00
24788;BME280;12883;52.662;5.196;2022-11-20T08:23:07;101175.53;;;2.16;100.00
24788;BME280;12883;52.662;5.196;2022-11-20T08:25:34;101178.00;;;2.27;100.00
24788;BME280;12883;52.662;5.196;2022-11-20T08:28:04;101176.50;;;2.15;100.00
24788;BME280;12883;52.662;5.196;2022-11-20T08:30:30;101170.84;;;2.38;100.00
24788;BME280;12883;52.662;5.196;2022-11-20T08:33:01;101162.44;;;2.35;100.00
24788;BME280;12883;52.662;5.196;2022-11-20T08:35:27;101179.53;;;2.39;100.00
24788;BME280;12883;52.662;5.196;2022-11-20T08:37:52;101173.19;;;2.32;100.00
24788;BME280;12883;52.662;5.196;2022-11-20T08:40:18;101178.16;;;2.35;100.00
24788;BME280;12883;52.662;5.196;2022-11-20T08:42:50;101178.00;;;2.46;100.00
24788;BME280;12883;52.662;5.196;2022-11-20T08:45:16;101122.91;;;2.19;100.00
24788;BME280;12883;52.662;5.196;2022-11-20T08:47:43;101180.22;;;2.69;100.00
24788;BME280;12883;52.662;5.196;2022-11-20T08:50:10;101180.63;;;2.65;100.00
24788;BME280;12883;52.662;5.196;2022-11-20T08:52:35;101180.63;;;2.74;100.00
24788;BME280;12883;52.662;5.196;2022-11-20T08:55:01;101185.97;;;2.82;100.00
24788;BME280;12883;52.662;5.196;2022-11-20T08:57:26;101179.78;;;2.83;100.00
24788;BME280;12883;52.662;5.196;2022-11-20T08:59:51;101183.25;;;2.74;100.00
24788;BME280;12883;52.662;5.196;2022-11-20T09:02:16;101180.31;;;2.87;100.00
24788;BME280;12883;52.662;5.196;2022-11-20T09:04:42;101165.16;;;2.81;100.00
24788;BME280;12883;52.662;5.196;2022-11-20T09:07:07;101175.31;;;2.93;100.00
24788;BME280;12883;52.662;5.196;2022-11-20T09:09:32;101179.75;;;2.93;100.00
24788;BME280;12883;52.662;5.196;2022-11-20T09:11:58;101159.91;;;2.90;100.00
24788;BME280;12883;52.662;5.196;2022-11-20T09:14:23;101129.28;;;2.91;100.00
24788;BME280;12883;52.662;5.196;2022-11-20T09:16:56;101139.97;;;3.16;100.00
24788;BME280;12883;52.662;5.196;2022-11-20T09:19:23;101151.09;;;3.28;100.00
24788;BME280;12883;52.662;5.196;2022-11-20T09:21:49;101142.69;;;3.24;100.00
24788;BME280;12883;52.662;5.196;2022-11-20T09:24:15;101136.03;;;3.30;100.00
24788;BME280;12883;52.662;5.196;2022-11-20T09:26:40;101148.06;;;3.23;100.00
24788;BME280;12883;52.662;5.196;2022-11-20T09:29:05;101129.72;;;3.23;100.00
24788;BME280;12883;52.662;5.196;2022-11-20T09:31:31;101147.59;;;3.37;100.00
24788;BME280;12883;52.662;5.196;2022-11-20T09:33:56;101137.78;;;3.39;100.00
24788;BME280;12883;52.662;5.196;2022-11-20T09:36:21;101132.81;;;3.36;100.00
24788;BME280;12883;52.662;5.196;2022-11-20T09:38:47;101147.59;;;3.37;100.00
24788;BME280;12883;52.662;5.196;2022-11-20T09:46:52;101139.28;;;3.68;100.00
24788;BME280;12883;52.662;5.196;2022-11-20T09:52:50;101124.75;;;3.74;100.00
24788;BME280;12883;52.662;5.196;2022-11-20T09:55:20;101116.44;;;3.78;100.00
24788;BME280;12883;52.662;5.196;2022-11-20T09:57:48;101113.06;;;3.86;100.00
24788;BME280;12883;52.662;5.196;2022-11-20T10:00:16;101109.97;;;3.90;100.00
24788;BME280;12883;52.662;5.196;2022-11-20T10:02:49;101108.59;;;3.96;100.00
24788;BME280;12883;52.662;5.196;2022-11-20T10:05:20;101109.56;;;3.95;100.00
24788;BME280;12883;52.662;5.196;2022-11-20T10:08:07;101099.94;;;4.03;100.00
24788;BME280;12883;52.662;5.196;2022-11-20T10:10:46;101094.47;;;3.97;100.00
24788;BME280;12883;52.662;5.196;2022-11-20T10:13:34;101088.03;;;4.09;100.00
24788;BME280;12883;52.662;5.196;2022-11-20T10:21:41;101090.22;;;4.13;100.00
24788;BME280;12883;52.662;5.196;2022-11-20T10:24:28;101091.72;;;4.16;100.00
24788;BME280;12883;52.662;5.196;2022-11-20T10:30:00;101074.97;;;4.17;100.00
24788;BME280;12883;52.662;5.196;2022-11-20T10:32:35;101081.03;;;4.17;100.00
24788;BME280;12883;52.662;5.196;2022-11-20T10:35:05;101081.72;;;4.19;100.00
24788;BME280;12883;52.662;5.196;2022-11-20T10:37:35;101077.94;;;4.22;100.00
24788;BME280;12883;52.662;5.196;2022-11-20T10:40:20;101072.19;;;4.18;100.00
24788;BME280;12883;52.662;5.196;2022-11-20T10:43:08;101064.69;;;4.23;100.00
24788;BME280;12883;52.662;5.196;2022-11-20T10:48:14;101054.41;;;4.30;100.00
24788;BME280;12883;52.662;5.196;2022-11-20T10:50:53;101046.66;;;4.28;100.00
24788;BME280;12883;52.662;5.196;2022-11-20T10:56:30;101037.00;;;4.29;100.00
24788;BME280;12883;52.662;5.196;2022-11-20T11:01:41;101023.41;;;4.33;100.00
24788;BME280;12883;52.662;5.196;2022-11-20T11:07:17;101021.38;;;4.53;100.00
24788;BME280;12883;52.662;5.196;2022-11-20T11:09:50;101018.13;;;4.58;100.00
24788;BME280;12883;52.662;5.196;2022-11-20T11:12:18;101016.97;;;4.53;100.00
24788;BME280;12883;52.662;5.196;2022-11-20T11:14:55;101016.50;;;4.57;100.00
24788;BME280;12883;52.662;5.196;2022-11-20T11:17:31;101018.13;;;4.58;100.00
24788;BME280;12883;52.662;5.196;2022-11-20T11:22:32;101010.41;;;4.57;100.00
24788;BME280;12883;52.662;5.196;2022-11-20T11:24:58;101004.06;;;4.67;100.00
24788;BME280;12883;52.662;5.196;2022-11-20T11:27:23;100994.53;;;4.66;100.00
24788;BME280;12883;52.662;5.196;2022-11-20T11:29:49;100997.38;;;4.47;100.00
24788;BME280;12883;52.662;5.196;2022-11-20T11:32:20;100988.72;;;4.55;100.00
24788;BME280;12883;52.662;5.196;2022-11-20T11:35:20;100973.97;;;4.62;100.00
24788;BME280;12883;52.662;5.196;2022-11-20T11:37:46;100977.22;;;4.56;100.00
24788;BME280;12883;52.662;5.196;2022-11-20T11:40:13;100974.50;;;4.65;100.00
24788;BME280;12883;52.662;5.196;2022-11-20T11:42:43;100975.81;;;4.69;100.00
24788;BME280;12883;52.662;5.196;2022-11-20T11:45:14;100962.66;;;4.69;100.00
24788;BME280;12883;52.662;5.196;2022-11-20T11:50:27;100949.84;;;4.66;100.00
24788;BME280;12883;52.662;5.196;2022-11-20T11:53:12;100949.19;;;4.64;100.00
24788;BME280;12883;52.662;5.196;2022-11-20T11:55:48;100913.78;;;4.43;100.00
24788;BME280;12883;52.662;5.196;2022-11-20T12:00:47;100928.06;;;4.82;100.00
24788;BME280;12883;52.662;5.196;2022-11-20T12:03:23;100918.72;;;4.87;100.00
24788;BME280;12883;52.662;5.196;2022-11-20T12:05:56;100914.59;;;4.77;100.00
24788;BME280;12883;52.662;5.196;2022-11-20T12:08:35;100925.63;;;4.88;100.00
24788;BME280;12883;52.662;5.196;2022-11-20T12:15:59;100906.97;;;4.66;100.00
24788;BME280;12883;52.662;5.196;2022-11-20T12:18:25;100883.19;;;4.67;100.00
24788;BME280;12883;52.662;5.196;2022-11-20T12:21:24;100910.97;;;4.86;100.00
24788;BME280;12883;52.662;5.196;2022-11-20T12:27:02;100884.19;;;4.82;100.00
24788;BME280;12883;52.662;5.196;2022-11-20T12:32:48;100885.72;;;5.01;100.00
24788;BME280;12883;52.662;5.196;2022-11-20T12:35:44;100882.25;;;4.84;100.00
24788;BME280;12883;52.662;5.196;2022-11-20T12:47:14;100840.69;;;4.88;100.00
24788;BME280;12883;52.662;5.196;2022-11-20T12:49:50;100843.81;;;4.91;100.00
24788;BME280;12883;52.662;5.196;2022-11-20T12:52:27;100838.53;;;4.83;100.00
24788;BME280;12883;52.662;5.196;2022-11-20T12:55:09;100833.13;;;4.93;100.00
24788;BME280;12883;52.662;5.196;2022-11-20T12:57:51;100830.34;;;4.94;100.00
24788;BME280;12883;52.662;5.196;2022-11-20T13:00:21;100835.94;;;4.99;100.00
24788;BME280;12883;52.662;5.196;2022-11-20T13:08:30;100826.72;;;4.95;100.00
24788;BME280;12883;52.662;5.196;2022-11-20T13:16:50;100811.94;;;4.86;100.00
24788;BME280;12883;52.662;5.196;2022-11-20T13:19:17;100807.47;;;4.87;100.00
24788;BME280;12883;52.662;5.196;2022-11-20T13:21:45;100801.41;;;4.86;100.00
24788;BME280;12883;52.662;5.196;2022-11-20T13:29:42;100703.66;;;4.35;100.00
24788;BME280;12883;52.662;5.196;2022-11-20T13:32:20;100783.19;;;4.85;100.00
24788;BME280;12883;52.662;5.196;2022-11-20T13:34:56;100765.63;;;4.77;100.00
24788;BME280;12883;52.662;5.196;2022-11-20T13:37:40;100751.47;;;4.78;100.00
24788;BME280;12883;52.662;5.196;2022-11-20T13:45:20;100755.41;;;4.82;100.00
24788;BME280;12883;52.662;5.196;2022-11-20T13:47:51;100733.09;;;4.70;100.00
24788;BME280;12883;52.662;5.196;2022-11-20T13:50:16;100723.72;;;4.60;100.00
24788;BME280;12883;52.662;5.196;2022-11-20T13:53:02;100718.47;;;4.60;100.00
24788;BME280;12883;52.662;5.196;2022-11-20T13:58:23;100714.34;;;4.50;100.00
24788;BME280;12883;52.662;5.196;2022-11-20T14:01:23;100708.41;;;4.55;100.00
24788;BME280;12883;52.662;5.196;2022-11-20T14:03:50;100676.25;;;4.38;100.00
24788;BME280;12883;52.662;5.196;2022-11-20T14:06:29;100683.81;;;4.57;100.00
24788;BME280;12883;52.662;5.196;2022-11-20T14:08:55;100632.06;;;4.25;100.00
24788;BME280;12883;52.662;5.196;2022-11-20T14:11:26;100649.47;;;4.58;100.00
24788;BME280;12883;52.662;5.196;2022-11-20T14:16:21;100669.69;;;4.57;100.00
24788;BME280;12883;52.662;5.196;2022-11-20T14:18:47;100664.75;;;4.62;100.00
24788;BME280;12883;52.662;5.196;2022-11-20T14:21:24;100651.78;;;4.37;100.00
24788;BME280;12883;52.662;5.196;2022-11-20T14:24:03;100677.56;;;4.57;100.00
24788;BME280;12883;52.662;5.196;2022-11-20T14:26:28;100667.22;;;4.56;100.00